Time;durP1;ratioP1;P1;durP2;ratioP2;P2;SDS_P1;SDS_P2;PMS_P1;PMS_P2;Temp;Humidity;BMP_temperature;BMP_pressure;BME280_temperature;BME280_humidity;BME280_pressure;Samples;Min_cycle;Max_cycle;Signal;HPM_P1;HPM_P2
2024/01/06 00:01:42;;;;;;;14.63;4.55;;;;;;;;;;5046003;28;20036;-80
2024/01/06 00:04:27;;;;;;;8.40;3.90;;;;;;;;;;5059694;28;20257;-81
2024/01/06 00:07:13;;;;;;;6.97;3.65;;;;;;;;;;5049261;28;20387;-81
2024/01/06 00:09:58;;;;;;;8.10;3.75;;;;;;;;;;5050666;28;20064;-81
2024/01/06 00:12:44;;;;;;;12.38;4.60;;;;;;;;;;5075039;28;20413;-81
2024/01/06 00:15:29;;;;;;;10.70;4.93;;;;;;;;;;5075129;28;20034;-81
2024/01/06 00:18:14;;;;;;;10.90;4.63;;;;;;;;;;5075092;28;20028;-81
2024/01/06 00:21:00;;;;;;;9.52;4.22;;;;;;;;;;5075537;28;20054;-80
2024/01/06 00:23:45;;;;;;;7.55;3.90;;;;;;;;;;5055436;28;20403;-80
2024/01/06 00:26:30;;;;;;;8.10;4.38;;;;;;;;;;5060139;28;20020;-80
2024/01/06 00:29:15;;;;;;;11.10;3.85;;;;;;;;;;5082073;28;20020;-80
2024/01/06 00:32:00;;;;;;;10.27;4.18;;;;;;;;;;5084813;28;20016;-80
2024/01/06 00:34:47;;;;;;;9.15;3.83;;;;;;;;;;5075084;28;20028;-82
2024/01/06 00:37:32;;;;;;;10.00;4.28;;;;;;;;;;5066925;28;20054;-82
2024/01/06 00:40:19;;;;;;;6.22;3.35;;;;;;;;;;5074801;28;20119;-82
2024/01/06 00:43:04;;;;;;;8.02;3.53;;;;;;;;;;5074310;28;20058;-83
2024/01/06 00:45:50;;;;;;;11.10;3.78;;;;;;;;;;5074093;28;20119;-82
2024/01/06 00:48:35;;;;;;;8.50;3.83;;;;;;;;;;5073139;28;20508;-82
2024/01/06 00:51:21;;;;;;;7.72;4.05;;;;;;;;;;5058781;28;20525;-82
2024/01/06 00:54:07;;;;;;;7.85;3.13;;;;;;;;;;5073977;28;20085;-83
2024/01/06 00:56:52;;;;;;;10.13;4.07;;;;;;;;;;5069228;28;20064;-81
2024/01/06 00:59:37;;;;;;;9.18;3.60;;;;;;;;;;5073733;28;20020;-82
2024/01/06 01:02:22;;;;;;;9.90;3.55;;;;;;;;;;5074316;28;20031;-83
2024/01/06 01:05:08;;;;;;;6.45;3.00;;;;;;;;;;5073729;28;20035;-82
2024/01/06 01:07:53;;;;;;;4.28;2.47;;;;;;;;;;5060126;28;20028;-81
2024/01/06 01:10:38;;;;;;;5.93;3.15;;;;;;;;;;5074229;28;20044;-81
2024/01/06 01:13:23;;;;;;;6.95;3.35;;;;;;;;;;5068123;28;20021;-81
2024/01/06 01:16:09;;;;;;;6.05;2.88;;;;;;;;;;5054107;28;20025;-81
2024/01/06 01:18:54;;;;;;;8.25;3.28;;;;;;;;;;5068383;28;20020;-81
2024/01/06 01:21:39;;;;;;;9.95;2.85;;;;;;;;;;5056382;28;20020;-81
2024/01/06 01:24:25;;;;;;;5.40;2.38;;;;;;;;;;5073960;28;20046;-81
2024/01/06 01:27:10;;;;;;;5.82;2.78;;;;;;;;;;5073701;28;20024;-81
2024/01/06 01:29:55;;;;;;;13.55;3.00;;;;;;;;;;5087194;28;20027;-81
2024/01/06 01:32:40;;;;;;;4.47;2.65;;;;;;;;;;5077508;28;20099;-81
2024/01/06 01:35:25;;;;;;;9.75;2.92;;;;;;;;;;5074103;28;20114;-81
2024/01/06 01:38:11;;;;;;;4.82;1.88;;;;;;;;;;5080158;28;20032;-80
2024/01/06 01:40:56;;;;;;;4.97;2.50;;;;;;;;;;5074098;28;20043;-81
2024/01/06 01:43:41;;;;;;;6.82;2.47;;;;;;;;;;5073655;28;20115;-81
2024/01/06 01:46:27;;;;;;;5.22;2.28;;;;;;;;;;5074253;28;20118;-80
2024/01/06 01:49:13;;;;;;;7.40;2.45;;;;;;;;;;5059681;28;20028;-83
2024/01/06 01:51:58;;;;;;;6.00;2.28;;;;;;;;;;5073832;28;20539;-82
2024/01/06 01:54:44;;;;;;;6.45;2.33;;;;;;;;;;5073866;28;20119;-83
2024/01/06 01:57:29;;;;;;;6.10;1.70;;;;;;;;;;5073843;28;20039;-82
2024/01/06 02:00:14;;;;;;;6.30;1.85;;;;;;;;;;5073058;28;20382;-82
2024/01/06 02:03:00;;;;;;;5.60;1.73;;;;;;;;;;5073176;28;20152;-83
2024/01/06 02:05:46;;;;;;;4.32;1.80;;;;;;;;;;5073907;28;20036;-83
2024/01/06 02:08:31;;;;;;;4.47;2.20;;;;;;;;;;5073267;28;20478;-82
2024/01/06 02:11:16;;;;;;;5.20;1.58;;;;;;;;;;5072893;28;20044;-82
2024/01/06 02:14:01;;;;;;;9.55;2.75;;;;;;;;;;5067145;28;20017;-82
2024/01/06 02:16:46;;;;;;;5.10;1.75;;;;;;;;;;5053835;28;20020;-81
2024/01/06 02:19:32;;;;;;;6.72;1.83;;;;;;;;;;5073495;28;20023;-82
2024/01/06 02:22:17;;;;;;;4.65;2.28;;;;;;;;;;5077588;28;20398;-81
2024/01/06 02:25:07;;;;;;;4.63;1.70;;;;;;;;;;5081013;28;20028;-82
2024/01/06 02:27:52;;;;;;;7.53;1.83;;;;;;;;;;5080458;28;20038;-82
2024/01/06 02:30:37;;;;;;;3.38;1.55;;;;;;;;;;5077357;28;20374;-81
2024/01/06 02:33:24;;;;;;;5.18;1.85;;;;;;;;;;5077001;28;20308;-81
2024/01/06 02:36:09;;;;;;;5.85;2.15;;;;;;;;;;5083180;28;20074;-81
2024/01/06 02:38:54;;;;;;;4.03;1.33;;;;;;;;;;5080251;28;20036;-81
2024/01/06 02:41:39;;;;;;;2.38;1.35;;;;;;;;;;5077576;28;20032;-81
2024/01/06 02:44:25;;;;;;;5.05;1.65;;;;;;;;;;5077299;28;20031;-81
2024/01/06 02:47:10;;;;;;;6.47;1.95;;;;;;;;;;5077197;28;20032;-81
2024/01/06 02:49:55;;;;;;;5.10;2.35;;;;;;;;;;5077319;28;20032;-81
2024/01/06 02:52:41;;;;;;;5.28;1.90;;;;;;;;;;5077160;28;20123;-80
2024/01/06 02:55:26;;;;;;;4.60;1.50;;;;;;;;;;5063439;28;20032;-81
2024/01/06 02:58:11;;;;;;;4.88;2.00;;;;;;;;;;5076879;28;20034;-81
2024/01/06 03:00:57;;;;;;;3.33;1.50;;;;;;;;;;5077107;28;20016;-81
2024/01/06 03:03:42;;;;;;;6.28;1.55;;;;;;;;;;5076820;28;20109;-83
2024/01/06 03:06:27;;;;;;;4.65;1.70;;;;;;;;;;5077299;28;20027;-84
2024/01/06 03:09:13;;;;;;;3.05;1.42;;;;;;;;;;5076488;28;20024;-82
2024/01/06 03:11:58;;;;;;;4.57;1.52;;;;;;;;;;5076290;28;20177;-82
2024/01/06 03:14:43;;;;;;;4.25;1.65;;;;;;;;;;5070494;28;20028;-83
2024/01/06 03:17:28;;;;;;;6.90;1.88;;;;;;;;;;5058621;28;20032;-82
2024/01/06 03:20:14;;;;;;;5.15;1.67;;;;;;;;;;5076385;28;20032;-83
2024/01/06 03:22:59;;;;;;;3.42;1.92;;;;;;;;;;5090580;28;20041;-82
2024/01/06 03:25:44;;;;;;;4.95;1.35;;;;;;;;;;5076509;28;20031;-81
2024/01/06 03:28:29;;;;;;;2.92;1.55;;;;;;;;;;5076213;28;20032;-82
2024/01/06 03:31:15;;;;;;;6.25;1.60;;;;;;;;;;5076565;28;20016;-82
2024/01/06 03:34:00;;;;;;;3.70;1.67;;;;;;;;;;5076094;28;20081;-82
2024/01/06 03:36:45;;;;;;;4.03;1.25;;;;;;;;;;5084689;28;20028;-82
2024/01/06 03:39:30;;;;;;;4.43;2.03;;;;;;;;;;5076248;28;20058;-82
2024/01/06 03:42:15;;;;;;;5.63;2.05;;;;;;;;;;5076123;28;20505;-81
2024/01/06 03:45:01;;;;;;;4.65;1.65;;;;;;;;;;5075877;28;20048;-82
2024/01/06 03:47:46;;;;;;;3.45;1.60;;;;;;;;;;5076142;28;20036;-81
2024/01/06 03:50:31;;;;;;;7.20;2.40;;;;;;;;;;5076153;28;20095;-82
2024/01/06 03:53:17;;;;;;;5.40;1.60;;;;;;;;;;5075781;28;20028;-81
2024/01/06 03:56:03;;;;;;;4.90;1.60;;;;;;;;;;5075842;28;20027;-81
2024/01/06 03:58:48;;;;;;;5.38;1.90;;;;;;;;;;5075741;28;20027;-81
2024/01/06 04:01:35;;;;;;;12.40;2.00;;;;;;;;;;5075779;28;20059;-81
2024/01/06 04:04:21;;;;;;;6.97;1.48;;;;;;;;;;5075938;28;20032;-81
2024/01/06 04:07:06;;;;;;;3.72;1.70;;;;;;;;;;5075718;28;20023;-81
2024/01/06 04:09:52;;;;;;;3.72;1.27;;;;;;;;;;5075688;28;20107;-80
2024/01/06 04:12:37;;;;;;;5.05;1.73;;;;;;;;;;5068438;28;20407;-79
2024/01/06 04:15:23;;;;;;;3.75;1.27;;;;;;;;;;5069094;28;20395;-80
2024/01/06 04:18:09;;;;;;;3.17;1.40;;;;;;;;;;5056593;28;20347;-81
2024/01/06 04:20:54;;;;;;;3.80;1.60;;;;;;;;;;5049643;28;20032;-83
2024/01/06 04:23:39;;;;;;;7.00;1.42;;;;;;;;;;5048663;28;20036;-82
2024/01/06 04:26:25;;;;;;;11.35;3.03;;;;;;;;;;5035211;28;20341;-83
2024/01/06 04:29:10;;;;;;;7.50;3.95;;;;;;;;;;5049003;28;20086;-82
2024/01/06 04:31:55;;;;;;;4.35;2.05;;;;;;;;;;5039315;28;20152;-81
2024/01/06 04:34:41;;;;;;;7.75;2.10;;;;;;;;;;5048928;28;20024;-83
2024/01/06 04:37:26;;;;;;;8.60;2.63;;;;;;;;;;5047993;28;20033;-82
2024/01/06 04:40:12;;;;;;;9.57;2.17;;;;;;;;;;5029219;28;20112;-81
2024/01/06 04:42:57;;;;;;;8.55;2.88;;;;;;;;;;5029724;28;20022;-81
2024/01/06 04:45:42;;;;;;;5.53;1.85;;;;;;;;;;5048575;28;20108;-82
2024/01/06 04:48:28;;;;;;;3.28;1.65;;;;;;;;;;5054122;28;20024;-81
2024/01/06 04:51:13;;;;;;;2.15;1.40;;;;;;;;;;5068362;28;20386;-81
2024/01/06 04:53:59;;;;;;;4.90;1.40;;;;;;;;;;5068383;28;20111;-81
2024/01/06 04:56:44;;;;;;;3.10;1.52;;;;;;;;;;5068742;28;20078;-81
2024/01/06 04:59:29;;;;;;;2.50;1.15;;;;;;;;;;5067866;28;20077;-81
2024/01/06 05:02:15;;;;;;;4.70;1.67;;;;;;;;;;5068293;28;20440;-81
2024/01/06 05:05:00;;;;;;;4.88;2.13;;;;;;;;;;5067926;28;20651;-81
2024/01/06 05:07:45;;;;;;;2.72;1.25;;;;;;;;;;5068420;28;20111;-81
2024/01/06 05:10:31;;;;;;;5.93;1.67;;;;;;;;;;5067615;28;20049;-80
2024/01/06 05:13:17;;;;;;;6.03;1.55;;;;;;;;;;5064319;28;20047;-80
2024/01/06 05:16:02;;;;;;;4.15;1.45;;;;;;;;;;5034889;28;20040;-80
2024/01/06 05:18:47;;;;;;;3.70;1.38;;;;;;;;;;5034726;28;20033;-81
2024/01/06 05:21:33;;;;;;;4.57;1.33;;;;;;;;;;5034030;28;20373;-80
2024/01/06 05:24:20;;;;;;;6.47;1.88;;;;;;;;;;5048312;28;20438;-79
2024/01/06 05:27:05;;;;;;;4.70;2.30;;;;;;;;;;5038540;28;20107;-80
2024/01/06 05:29:51;;;;;;;3.20;1.55;;;;;;;;;;5047898;28;20017;-80
2024/01/06 05:32:37;;;;;;;8.63;3.13;;;;;;;;;;5043344;28;20150;-82
2024/01/06 05:35:23;;;;;;;2.80;1.45;;;;;;;;;;5053026;28;20025;-82
2024/01/06 05:38:08;;;;;;;10.57;1.95;;;;;;;;;;5053563;28;20028;-82
2024/01/06 05:40:53;;;;;;;6.68;1.95;;;;;;;;;;5067738;28;20044;-83
2024/01/06 05:43:38;;;;;;;5.43;1.83;;;;;;;;;;5067481;28;20115;-82
2024/01/06 05:46:24;;;;;;;6.40;1.63;;;;;;;;;;5048524;28;20044;-82
2024/01/06 05:49:10;;;;;;;4.50;1.80;;;;;;;;;;5047498;28;20025;-81
2024/01/06 05:51:55;;;;;;;10.50;1.85;;;;;;;;;;5048123;28;20086;-81
2024/01/06 05:54:42;;;;;;;8.15;1.83;;;;;;;;;;5050408;28;20044;-81
2024/01/06 05:57:27;;;;;;;5.38;1.48;;;;;;;;;;5067858;28;20020;-81
2024/01/06 06:00:13;;;;;;;4.22;1.45;;;;;;;;;;5067212;28;20040;-81
2024/01/06 06:02:58;;;;;;;8.15;2.08;;;;;;;;;;5067722;28;20056;-81
2024/01/06 06:05:44;;;;;;;5.53;1.73;;;;;;;;;;5067561;28;20027;-81
2024/01/06 06:08:30;;;;;;;5.40;1.67;;;;;;;;;;5067529;28;20038;-81
2024/01/06 06:11:15;;;;;;;5.82;1.95;;;;;;;;;;5070368;28;20047;-81
2024/01/06 06:14:02;;;;;;;4.75;1.63;;;;;;;;;;5075094;28;20451;-80
2024/01/06 06:16:47;;;;;;;9.10;2.00;;;;;;;;;;5053644;28;20081;-81
2024/01/06 06:19:33;;;;;;;4.03;1.40;;;;;;;;;;5053286;28;20070;-81
2024/01/06 06:22:19;;;;;;;4.47;1.52;;;;;;;;;;5039646;28;20213;-81
2024/01/06 06:25:04;;;;;;;5.68;1.75;;;;;;;;;;5053390;28;20033;-80
2024/01/06 06:27:49;;;;;;;4.65;1.55;;;;;;;;;;5063635;28;20435;-80
2024/01/06 06:30:35;;;;;;;3.20;1.50;;;;;;;;;;5066925;28;20387;-80
2024/01/06 06:33:20;;;;;;;4.78;1.30;;;;;;;;;;5047464;28;20025;-80
2024/01/06 06:36:06;;;;;;;7.70;2.30;;;;;;;;;;5069516;28;20031;-79
2024/01/06 06:38:51;;;;;;;7.18;1.48;;;;;;;;;;5070445;28;20029;-79
2024/01/06 06:41:36;;;;;;;3.38;1.50;;;;;;;;;;5057381;28;20120;-79
2024/01/06 06:44:23;;;;;;;4.93;1.50;;;;;;;;;;5067015;28;20024;-79
2024/01/06 06:47:08;;;;;;;3.13;1.40;;;;;;;;;;5053035;28;20028;-81
2024/01/06 06:49:53;;;;;;;4.63;1.95;;;;;;;;;;5053121;28;20078;-82
2024/01/06 06:52:39;;;;;;;7.78;2.33;;;;;;;;;;5053511;28;20454;-81
2024/01/06 06:55:24;;;;;;;5.45;2.20;;;;;;;;;;5052799;28;20078;-82
2024/01/06 06:58:09;;;;;;;7.05;2.40;;;;;;;;;;5052668;28;20115;-82
2024/01/06 07:00:54;;;;;;;6.03;2.70;;;;;;;;;;5066964;28;20101;-81
2024/01/06 07:03:39;;;;;;;5.68;2.28;;;;;;;;;;5053366;28;20040;-81
2024/01/06 07:06:25;;;;;;;7.32;2.10;;;;;;;;;;5068411;28;20040;-80
2024/01/06 07:09:10;;;;;;;6.97;2.28;;;;;;;;;;5087373;28;20356;-81
2024/01/06 07:11:55;;;;;;;6.55;2.45;;;;;;;;;;5073642;28;20052;-81
2024/01/06 07:14:40;;;;;;;4.93;1.70;;;;;;;;;;5075971;28;20032;-82
2024/01/06 07:17:26;;;;;;;4.78;1.83;;;;;;;;;;5076811;28;20023;-81
2024/01/06 07:20:11;;;;;;;4.30;1.55;;;;;;;;;;5076932;28;20032;-80
2024/01/06 07:22:56;;;;;;;4.50;1.77;;;;;;;;;;5076576;28;20116;-81
2024/01/06 07:25:41;;;;;;;9.05;1.88;;;;;;;;;;5075758;28;20028;-80
2024/01/06 07:28:27;;;;;;;3.70;1.38;;;;;;;;;;5076392;28;20538;-80
2024/01/06 07:31:12;;;;;;;4.95;1.50;;;;;;;;;;5075946;28;20020;-80
2024/01/06 07:33:57;;;;;;;6.20;3.03;;;;;;;;;;5076291;28;20058;-80
2024/01/06 07:36:43;;;;;;;4.38;1.23;;;;;;;;;;5080398;28;20020;-80
2024/01/06 07:39:28;;;;;;;4.00;1.77;;;;;;;;;;5076633;28;20012;-80
2024/01/06 07:42:13;;;;;;;3.63;1.67;;;;;;;;;;5076224;28;20016;-79
2024/01/06 07:44:58;;;;;;;5.13;1.77;;;;;;;;;;5075637;28;20027;-80
2024/01/06 07:47:43;;;;;;;3.63;1.52;;;;;;;;;;5076234;28;20363;-80
2024/01/06 07:50:29;;;;;;;5.20;1.60;;;;;;;;;;5074253;28;20028;-79
2024/01/06 07:53:14;;;;;;;3.20;1.30;;;;;;;;;;5076032;28;20028;-79
2024/01/06 07:55:59;;;;;;;3.05;1.30;;;;;;;;;;5075829;28;20051;-80
2024/01/06 07:58:44;;;;;;;2.30;1.10;;;;;;;;;;5075937;28;20024;-79
2024/01/06 08:01:30;;;;;;;7.90;1.60;;;;;;;;;;5075246;28;20036;-81
2024/01/06 08:04:15;;;;;;;3.20;1.40;;;;;;;;;;5089890;28;20027;-83
2024/01/06 08:07:00;;;;;;;3.80;1.83;;;;;;;;;;5075864;28;20034;-81
2024/01/06 08:09:46;;;;;;;3.70;1.58;;;;;;;;;;5083735;28;20023;-78
2024/01/06 08:12:37;;;;;;;5.20;2.20;;;;;;;;;;5079892;28;20635;-81
2024/01/06 08:15:23;;;;;;;12.85;3.63;;;;;;;;;;5086088;28;20046;-81
2024/01/06 08:21:21;;;;;;;3.10;1.80;;;;;;;;;;5089476;28;20047;-81
2024/01/06 08:24:05;;;;;;;3.72;2.15;;;;;;;;;;5089442;28;20625;-81
2024/01/06 08:26:50;;;;;;;6.00;1.90;;;;;;;;;;5055161;28;20024;-81
2024/01/06 08:29:35;;;;;;;4.55;1.77;;;;;;;;;;5074265;28;20059;-82
2024/01/06 08:32:21;;;;;;;6.53;2.42;;;;;;;;;;5076602;28;20024;-81
2024/01/06 08:35:06;;;;;;;4.35;2.38;;;;;;;;;;5075904;28;20040;-81
2024/01/06 08:37:51;;;;;;;8.85;2.90;;;;;;;;;;5083786;28;20436;-81
2024/01/06 08:40:40;;;;;;;6.82;2.60;;;;;;;;;;5074942;28;20066;-81
2024/01/06 08:43:25;;;;;;;5.13;2.03;;;;;;;;;;5074730;28;20028;-80
2024/01/06 08:46:10;;;;;;;5.90;2.00;;;;;;;;;;5072632;28;20020;-81
2024/01/06 08:49:11;;;;;;;7.10;2.35;;;;;;;;;;5074592;28;20447;-81
2024/01/06 08:51:56;;;;;;;5.10;1.85;;;;;;;;;;5074215;28;20016;-81
2024/01/06 08:54:42;;;;;;;6.88;2.10;;;;;;;;;;5073885;28;20035;-80
2024/01/06 08:57:27;;;;;;;4.53;2.00;;;;;;;;;;5074564;28;20063;-81
2024/01/06 09:00:13;;;;;;;6.18;2.20;;;;;;;;;;5060279;28;20116;-80
2024/01/06 09:02:58;;;;;;;4.35;1.55;;;;;;;;;;5073538;28;20020;-81
2024/01/06 09:05:43;;;;;;;2.80;1.67;;;;;;;;;;5073931;28;20039;-80
2024/01/06 09:08:28;;;;;;;4.30;1.45;;;;;;;;;;5074119;28;20012;-80
2024/01/06 09:11:13;;;;;;;5.97;2.40;;;;;;;;;;5073976;28;20495;-79
2024/01/06 09:13:59;;;;;;;1.70;1.23;;;;;;;;;;5074107;28;20506;-80
2024/01/06 09:16:44;;;;;;;2.35;1.45;;;;;;;;;;5074043;28;20028;-81
2024/01/06 09:19:30;;;;;;;7.47;1.60;;;;;;;;;;5074418;28;20020;-81
2024/01/06 09:22:16;;;;;;;4.60;1.40;;;;;;;;;;5074299;28;20470;-83
2024/01/06 09:25:01;;;;;;;3.13;1.75;;;;;;;;;;5073873;28;20028;-83
2024/01/06 09:27:46;;;;;;;2.83;1.75;;;;;;;;;;5073987;28;20024;-81
2024/01/06 09:30:32;;;;;;;2.47;1.50;;;;;;;;;;5073780;28;20028;-82
2024/01/06 09:33:17;;;;;;;3.28;1.20;;;;;;;;;;5073923;28;20016;-83
2024/01/06 09:36:02;;;;;;;4.70;1.20;;;;;;;;;;5074157;28;20035;-82
2024/01/06 09:38:48;;;;;;;3.78;1.75;;;;;;;;;;5074056;28;20115;-82
2024/01/06 09:41:33;;;;;;;4.38;1.58;;;;;;;;;;5073627;28;20028;-83
2024/01/06 09:44:18;;;;;;;3.90;1.38;;;;;;;;;;5073875;28;20378;-82
2024/01/06 09:47:04;;;;;;;3.55;1.30;;;;;;;;;;5073910;28;20031;-82
2024/01/06 09:49:50;;;;;;;3.63;1.55;;;;;;;;;;5060081;28;20030;-82
2024/01/06 09:52:39;;;;;;;2.95;1.33;;;;;;;;;;5073842;28;20417;-82
2024/01/06 09:55:28;;;;;;;4.05;1.52;;;;;;;;;;5079951;28;20032;-82
2024/01/06 09:58:13;;;;;;;2.35;1.13;;;;;;;;;;5073770;28;20036;-81
2024/01/06 10:00:59;;;;;;;2.97;1.05;;;;;;;;;;5074054;28;20028;-82
2024/01/06 10:03:47;;;;;;;1.25;1.02;;;;;;;;;;5073568;28;20024;-82
2024/01/06 10:06:32;;;;;;;2.88;1.20;;;;;;;;;;5073086;28;20036;-82
2024/01/06 10:09:22;;;;;;;2.00;1.33;;;;;;;;;;5073934;28;20114;-81
2024/01/06 10:12:07;;;;;;;1.95;1.30;;;;;;;;;;5072274;28;20142;-81
2024/01/06 10:14:53;;;;;;;1.92;1.05;;;;;;;;;;5073831;28;20470;-81
2024/01/06 10:17:39;;;;;;;2.40;0.95;;;;;;;;;;5053457;28;20055;-81
2024/01/06 10:20:25;;;;;;;3.03;1.30;;;;;;;;;;5055213;28;20025;-81
2024/01/06 10:23:10;;;;;;;2.42;1.30;;;;;;;;;;5073315;28;20659;-80
2024/01/06 10:25:55;;;;;;;4.88;2.00;;;;;;;;;;5072583;28;20024;-81
2024/01/06 10:28:41;;;;;;;3.70;1.92;;;;;;;;;;5073344;28;20030;-81
2024/01/06 10:31:26;;;;;;;1.70;1.20;;;;;;;;;;5073421;28;20057;-79
2024/01/06 10:34:11;;;;;;;3.03;1.80;;;;;;;;;;5073679;28;20111;-82
2024/01/06 10:36:57;;;;;;;2.78;1.42;;;;;;;;;;5072797;28;20081;-81
2024/01/06 10:39:42;;;;;;;3.00;1.65;;;;;;;;;;5072811;28;20131;-83
2024/01/06 10:42:30;;;;;;;4.00;1.20;;;;;;;;;;5075940;28;20055;-83
2024/01/06 10:45:15;;;;;;;5.03;1.52;;;;;;;;;;5076845;28;20032;-82
2024/01/06 10:48:01;;;;;;;2.90;1.50;;;;;;;;;;5077707;28;20103;-83
2024/01/06 10:50:47;;;;;;;6.72;1.80;;;;;;;;;;5077081;28;20647;-82
2024/01/06 10:53:32;;;;;;;2.17;1.10;;;;;;;;;;5077345;28;20032;-82
2024/01/06 10:56:17;;;;;;;1.63;0.90;;;;;;;;;;5076143;28;20032;-82
2024/01/06 10:59:03;;;;;;;2.03;1.05;;;;;;;;;;5076178;28;20028;-81
2024/01/06 11:01:48;;;;;;;4.05;1.77;;;;;;;;;;5076500;28;20160;-82
2024/01/06 11:04:34;;;;;;;3.97;1.48;;;;;;;;;;5076348;28;20052;-82
2024/01/06 11:07:20;;;;;;;3.90;1.23;;;;;;;;;;5076694;28;20574;-81
2024/01/06 11:10:16;;;;;;;2.17;1.48;;;;;;;;;;5076272;28;20058;-82
2024/01/06 11:13:11;;;;;;;1.27;1.02;;;;;;;;;;5076301;28;20031;-81
2024/01/06 11:15:56;;;;;;;1.40;1.20;;;;;;;;;;5076760;28;20105;-82
2024/01/06 11:18:42;;;;;;;2.55;1.23;;;;;;;;;;5076647;28;20031;-82
2024/01/06 11:21:32;;;;;;;1.30;0.93;;;;;;;;;;5076690;28;20046;-82
2024/01/06 11:24:22;;;;;;;1.25;0.90;;;;;;;;;;5042821;28;20020;-81
2024/01/06 11:27:09;;;;;;;2.22;0.98;;;;;;;;;;5069281;28;20035;-81
2024/01/06 11:29:55;;;;;;;3.25;1.48;;;;;;;;;;5076362;28;20020;-81
2024/01/06 11:32:41;;;;;;;1.38;1.00;;;;;;;;;;5076080;28;20036;-81
2024/01/06 11:35:27;;;;;;;3.03;0.88;;;;;;;;;;5076346;28;20024;-80
2024/01/06 11:38:13;;;;;;;1.83;1.10;;;;;;;;;;5066879;28;20064;-81
2024/01/06 11:40:59;;;;;;;1.13;1.00;;;;;;;;;;5076259;28;20020;-81
2024/01/06 11:43:44;;;;;;;2.65;1.17;;;;;;;;;;5076626;28;20024;-82
2024/01/06 11:46:29;;;;;;;1.83;1.00;;;;;;;;;;5076256;28;20115;-82
2024/01/06 11:49:20;;;;;;;1.90;1.20;;;;;;;;;;5090530;28;20421;-84
2024/01/06 11:52:05;;;;;;;1.67;1.05;;;;;;;;;;5071210;28;20018;-83
2024/01/06 11:54:52;;;;;;;2.13;1.08;;;;;;;;;;5074627;28;20529;-83
2024/01/06 11:57:40;;;;;;;2.60;1.50;;;;;;;;;;5076006;28;20503;-82
2024/01/06 12:00:25;;;;;;;1.25;0.90;;;;;;;;;;5076459;28;20031;-83
2024/01/06 12:03:11;;;;;;;2.00;1.63;;;;;;;;;;5076124;28;20021;-81
2024/01/06 12:06:01;;;;;;;1.98;1.08;;;;;;;;;;5075440;28;20039;-80
2024/01/06 12:08:46;;;;;;;1.67;1.42;;;;;;;;;;5075395;28;20035;-81
2024/01/06 12:11:32;;;;;;;4.78;1.50;;;;;;;;;;5075318;28;20048;-81
2024/01/06 12:14:17;;;;;;;1.40;1.23;;;;;;;;;;5075454;28;20069;-81
2024/01/06 12:17:03;;;;;;;1.75;1.40;;;;;;;;;;5075032;28;20016;-81
2024/01/06 12:19:49;;;;;;;1.17;1.08;;;;;;;;;;5075986;28;20050;-81
2024/01/06 12:22:36;;;;;;;1.95;1.17;;;;;;;;;;5075228;28;20020;-81
2024/01/06 12:25:22;;;;;;;3.90;1.45;;;;;;;;;;5074833;28;20398;-80
2024/01/06 12:28:08;;;;;;;1.55;1.10;;;;;;;;;;5061019;28;20099;-80
2024/01/06 12:30:53;;;;;;;1.98;1.23;;;;;;;;;;5074816;28;20425;-80
2024/01/06 12:33:40;;;;;;;2.47;1.50;;;;;;;;;;5055206;28;20048;-80
2024/01/06 12:36:28;;;;;;;1.42;1.10;;;;;;;;;;5076656;28;20028;-80
2024/01/06 12:39:16;;;;;;;2.35;1.45;;;;;;;;;;5074928;28;20044;-80
2024/01/06 12:42:02;;;;;;;2.85;1.45;;;;;;;;;;5074754;28;20533;-80
2024/01/06 12:44:47;;;;;;;1.73;1.27;;;;;;;;;;5086244;28;20333;-80
2024/01/06 12:47:32;;;;;;;1.52;1.42;;;;;;;;;;5083594;28;20054;-79
2024/01/06 12:50:18;;;;;;;3.25;1.73;;;;;;;;;;5075045;28;20021;-79
2024/01/06 12:53:03;;;;;;;4.18;1.85;;;;;;;;;;5074561;28;20028;-79
2024/01/06 12:55:48;;;;;;;5.25;2.42;;;;;;;;;;5074822;28;20109;-80
2024/01/06 12:58:34;;;;;;;4.57;2.13;;;;;;;;;;5074530;28;20028;-80
2024/01/06 13:01:19;;;;;;;3.03;1.80;;;;;;;;;;5074085;28;20024;-80
2024/01/06 13:04:04;;;;;;;2.25;1.70;;;;;;;;;;5074097;28;20257;-83
2024/01/06 13:06:49;;;;;;;2.75;1.80;;;;;;;;;;5074203;28;20606;-80
2024/01/06 13:09:35;;;;;;;3.35;2.70;;;;;;;;;;5073910;28;20032;-81
2024/01/06 13:12:20;;;;;;;2.92;1.55;;;;;;;;;;5073781;28;20300;-81
2024/01/06 13:15:07;;;;;;;2.97;1.77;;;;;;;;;;5042565;28;20111;-82
2024/01/06 13:17:53;;;;;;;2.15;1.70;;;;;;;;;;5067092;28;20028;-80
2024/01/06 13:20:40;;;;;;;2.13;1.73;;;;;;;;;;5073984;28;20028;-81
2024/01/06 13:23:25;;;;;;;2.30;1.50;;;;;;;;;;5073931;28;20024;-81
2024/01/06 13:26:11;;;;;;;2.13;1.67;;;;;;;;;;5074255;28;20161;-81
2024/01/06 13:28:56;;;;;;;2.22;1.67;;;;;;;;;;5054089;28;20028;-81
2024/01/06 13:31:42;;;;;;;3.92;1.85;;;;;;;;;;5061875;28;20016;-81
2024/01/06 13:34:29;;;;;;;2.20;1.60;;;;;;;;;;5074472;28;20023;-80
2024/01/06 13:37:15;;;;;;;5.50;2.97;;;;;;;;;;5073781;28;20012;-81
2024/01/06 13:40:00;;;;;;;5.68;2.90;;;;;;;;;;5067568;28;20798;-81
2024/01/06 13:42:49;;;;;;;3.50;2.70;;;;;;;;;;5073445;28;20382;-82
2024/01/06 13:45:34;;;;;;;3.50;2.50;;;;;;;;;;5073913;28;20097;-80
2024/01/06 13:48:20;;;;;;;5.70;3.30;;;;;;;;;;5073797;28;20031;-80
2024/01/06 13:51:05;;;;;;;4.53;3.03;;;;;;;;;;5085329;28;20024;-80
2024/01/06 13:53:50;;;;;;;4.95;3.17;;;;;;;;;;5078599;28;20016;-79
2024/01/06 13:56:36;;;;;;;4.90;2.83;;;;;;;;;;5073664;28;20378;-81
2024/01/06 13:59:22;;;;;;;4.88;3.10;;;;;;;;;;5060979;28;20066;-79
2024/01/06 14:02:08;;;;;;;3.33;2.72;;;;;;;;;;5072677;28;20020;-80
2024/01/06 14:04:53;;;;;;;4.63;3.17;;;;;;;;;;5084501;28;20031;-88
2024/01/06 14:07:40;;;;;;;6.10;3.08;;;;;;;;;;5079228;28;20049;-88
2024/01/06 14:10:26;;;;;;;6.95;3.45;;;;;;;;;;5080335;28;20040;-80
2024/01/06 14:13:11;;;;;;;4.50;2.92;;;;;;;;;;5074856;28;20046;-82
2024/01/06 14:15:57;;;;;;;3.47;2.70;;;;;;;;;;5081760;28;20016;-79
2024/01/06 14:18:42;;;;;;;4.38;3.17;;;;;;;;;;5084409;28;20479;-79
2024/01/06 14:21:28;;;;;;;4.75;2.95;;;;;;;;;;5063496;28;20036;-76
2024/01/06 14:24:13;;;;;;;3.63;2.58;;;;;;;;;;5076010;28;20114;-79
2024/01/06 14:26:58;;;;;;;5.35;2.88;;;;;;;;;;5077529;28;20619;-79
2024/01/06 14:29:43;;;;;;;4.78;3.28;;;;;;;;;;5075552;28;20475;-80
2024/01/06 14:32:30;;;;;;;4.50;3.05;;;;;;;;;;5077593;28;20023;-79
2024/01/06 14:35:16;;;;;;;4.43;2.83;;;;;;;;;;5076908;28;20140;-76
2024/01/06 14:38:01;;;;;;;4.15;2.67;;;;;;;;;;5077738;28;20470;-79
2024/01/06 14:40:46;;;;;;;5.43;2.80;;;;;;;;;;5076710;28;20383;-79
2024/01/06 14:43:32;;;;;;;3.78;2.60;;;;;;;;;;5076150;28;20028;-79
2024/01/06 14:46:18;;;;;;;4.57;2.63;;;;;;;;;;5078318;28;20378;-78
2024/01/06 14:49:03;;;;;;;4.80;2.90;;;;;;;;;;5083718;28;20035;-78
2024/01/06 14:51:49;;;;;;;5.40;3.22;;;;;;;;;;5082713;28;20031;-78
2024/01/06 14:54:34;;;;;;;4.70;3.00;;;;;;;;;;5073061;28;20062;-80
2024/01/06 14:57:20;;;;;;;4.97;3.33;;;;;;;;;;5072599;28;20059;-81
2024/01/06 15:00:05;;;;;;;6.07;3.72;;;;;;;;;;5079076;28;20028;-81
2024/01/06 15:02:50;;;;;;;7.93;3.72;;;;;;;;;;5089592;28;20207;-81
2024/01/06 15:05:36;;;;;;;6.50;3.78;;;;;;;;;;5088882;28;20012;-81
2024/01/06 15:08:21;;;;;;;5.95;3.65;;;;;;;;;;5070736;28;20152;-79
2024/01/06 15:11:08;;;;;;;7.00;3.88;;;;;;;;;;5089749;28;20043;-79
2024/01/06 15:13:53;;;;;;;6.18;3.35;;;;;;;;;;5083173;28;20020;-80
2024/01/06 15:16:38;;;;;;;7.28;4.40;;;;;;;;;;5082900;28;20088;-81
2024/01/06 15:19:27;;;;;;;6.82;4.00;;;;;;;;;;5083525;28;20025;-80
2024/01/06 15:22:12;;;;;;;7.70;4.60;;;;;;;;;;5063513;28;20032;-80
2024/01/06 15:24:59;;;;;;;8.13;4.43;;;;;;;;;;5076027;28;20065;-79
2024/01/06 15:27:44;;;;;;;6.43;4.32;;;;;;;;;;5064867;28;20080;-82
2024/01/06 15:30:30;;;;;;;6.13;4.38;;;;;;;;;;5078479;28;20031;-83
2024/01/06 15:33:15;;;;;;;7.70;3.70;;;;;;;;;;5078189;28;20024;-82
2024/01/06 15:36:01;;;;;;;7.88;4.68;;;;;;;;;;5085078;28;20028;-83
2024/01/06 15:38:46;;;;;;;7.22;4.25;;;;;;;;;;5079015;28;20056;-83
2024/01/06 15:41:31;;;;;;;9.32;4.70;;;;;;;;;;5084277;28;20123;-83
2024/01/06 15:44:17;;;;;;;7.30;4.70;;;;;;;;;;5065184;28;20039;-81
2024/01/06 15:47:02;;;;;;;7.68;4.63;;;;;;;;;;5061196;28;20055;-84
2024/01/06 15:49:47;;;;;;;9.88;5.38;;;;;;;;;;5073212;28;20027;-82
2024/01/06 15:52:33;;;;;;;8.02;4.85;;;;;;;;;;5070879;28;20092;-83
2024/01/06 15:55:18;;;;;;;9.77;5.72;;;;;;;;;;5072918;28;20028;-83
2024/01/06 15:58:04;;;;;;;8.75;5.32;;;;;;;;;;5080080;28;20028;-83
2024/01/06 16:00:49;;;;;;;10.32;5.50;;;;;;;;;;5084240;28;20336;-81
2024/01/06 16:03:34;;;;;;;8.32;4.82;;;;;;;;;;5081791;28;20032;-82
2024/01/06 16:06:20;;;;;;;6.07;4.38;;;;;;;;;;5082072;28;20065;-82
2024/01/06 16:09:05;;;;;;;10.77;4.60;;;;;;;;;;5075688;28;20051;-81
2024/01/06 16:11:52;;;;;;;9.32;5.57;;;;;;;;;;5074884;28;20047;-81
2024/01/06 16:14:37;;;;;;;8.63;5.45;;;;;;;;;;5073518;28;20031;-80
2024/01/06 16:17:22;;;;;;;8.80;5.50;;;;;;;;;;5083126;28;20028;-80
2024/01/06 16:20:08;;;;;;;9.65;6.13;;;;;;;;;;5081553;28;20032;-80
2024/01/06 16:22:54;;;;;;;10.15;6.40;;;;;;;;;;5079087;28;20024;-80
2024/01/06 16:25:39;;;;;;;11.30;6.35;;;;;;;;;;5077328;28;20028;-81
2024/01/06 16:28:25;;;;;;;8.30;5.30;;;;;;;;;;5082672;28;20028;-80
2024/01/06 16:31:10;;;;;;;9.35;6.10;;;;;;;;;;5082603;28;20031;-80
2024/01/06 16:33:55;;;;;;;10.20;6.05;;;;;;;;;;5076512;28;20016;-78
2024/01/06 16:36:42;;;;;;;8.95;5.63;;;;;;;;;;5084702;28;20120;-79